sensor_id;sensor_type;location;lat;lon;timestamp;temperature;humidity
9987;DHT22;5033;46.310;11.214;2024-03-02T00:00:16;8.70;99.90
9987;DHT22;5033;46.310;11.214;2024-03-02T00:02:46;8.70;99.90
9987;DHT22;5033;46.310;11.214;2024-03-02T00:05:15;8.70;99.90
9987;DHT22;5033;46.310;11.214;2024-03-02T00:07:44;8.70;99.90
9987;DHT22;5033;46.310;11.214;2024-03-02T00:10:18;8.70;99.90
9987;DHT22;5033;46.310;11.214;2024-03-02T00:12:48;8.70;99.90
9987;DHT22;5033;46.310;11.214;2024-03-02T00:15:40;8.60;99.90
9987;DHT22;5033;46.310;11.214;2024-03-02T00:18:09;8.60;99.90
9987;DHT22;5033;46.310;11.214;2024-03-02T00:20:37;8.60;99.90
9987;DHT22;5033;46.310;11.214;2024-03-02T00:23:05;8.60;99.90
9987;DHT22;5033;46.310;11.214;2024-03-02T00:25:38;8.60;99.90
9987;DHT22;5033;46.310;11.214;2024-03-02T00:28:13;8.60;99.90
9987;DHT22;5033;46.310;11.214;2024-03-02T00:30:52;8.60;99.90
9987;DHT22;5033;46.310;11.214;2024-03-02T00:33:21;8.60;99.90
9987;DHT22;5033;46.310;11.214;2024-03-02T00:35:48;8.60;99.90
9987;DHT22;5033;46.310;11.214;2024-03-02T00:38:16;8.60;99.90
9987;DHT22;5033;46.310;11.214;2024-03-02T00:40:43;8.60;99.90
9987;DHT22;5033;46.310;11.214;2024-03-02T00:43:37;8.60;99.90
9987;DHT22;5033;46.310;11.214;2024-03-02T00:46:05;8.60;99.90
9987;DHT22;5033;46.310;11.214;2024-03-02T00:48:33;8.60;99.90
9987;DHT22;5033;46.310;11.214;2024-03-02T00:51:01;8.60;99.90
9987;DHT22;5033;46.310;11.214;2024-03-02T00:53:30;8.60;99.90
9987;DHT22;5033;46.310;11.214;2024-03-02T00:55:58;8.50;99.90
9987;DHT22;5033;46.310;11.214;2024-03-02T00:58:27;8.50;99.90
9987;DHT22;5033;46.310;11.214;2024-03-02T01:00:54;8.50;99.90
9987;DHT22;5033;46.310;11.214;2024-03-02T01:03:21;8.50;99.90
9987;DHT22;5033;46.310;11.214;2024-03-02T01:05:48;8.40;99.90
9987;DHT22;5033;46.310;11.214;2024-03-02T01:08:15;8.40;99.90
9987;DHT22;5033;46.310;11.214;2024-03-02T01:10:42;8.40;99.90
9987;DHT22;5033;46.310;11.214;2024-03-02T01:13:09;8.40;99.90
9987;DHT22;5033;46.310;11.214;2024-03-02T01:15:37;8.40;99.90
9987;DHT22;5033;46.310;11.214;2024-03-02T01:18:04;8.30;99.90
9987;DHT22;5033;46.310;11.214;2024-03-02T01:20:31;8.30;99.90
9987;DHT22;5033;46.310;11.214;2024-03-02T01:22:59;8.30;99.90
9987;DHT22;5033;46.310;11.214;2024-03-02T01:25:26;8.30;99.90
9987;DHT22;5033;46.310;11.214;2024-03-02T01:27:52;8.30;99.90
9987;DHT22;5033;46.310;11.214;2024-03-02T01:30:19;8.30;99.90
9987;DHT22;5033;46.310;11.214;2024-03-02T01:32:48;8.30;99.90
9987;DHT22;5033;46.310;11.214;2024-03-02T01:35:15;8.30;99.90
9987;DHT22;5033;46.310;11.214;2024-03-02T01:37:42;8.30;99.90
9987;DHT22;5033;46.310;11.214;2024-03-02T01:40:10;8.30;99.90
9987;DHT22;5033;46.310;11.214;2024-03-02T01:42:38;8.30;99.90
9987;DHT22;5033;46.310;11.214;2024-03-02T01:45:05;8.30;99.90
9987;DHT22;5033;46.310;11.214;2024-03-02T01:47:33;8.30;99.90
9987;DHT22;5033;46.310;11.214;2024-03-02T01:50:01;8.30;99.90
9987;DHT22;5033;46.310;11.214;2024-03-02T01:52:28;8.20;99.90
9987;DHT22;5033;46.310;11.214;2024-03-02T01:54:55;8.20;99.90
9987;DHT22;5033;46.310;11.214;2024-03-02T01:57:22;8.20;99.90
9987;DHT22;5033;46.310;11.214;2024-03-02T01:59:49;8.20;99.90
9987;DHT22;5033;46.310;11.214;2024-03-02T02:02:17;8.20;99.90
9987;DHT22;5033;46.310;11.214;2024-03-02T02:04:44;8.20;99.90
9987;DHT22;5033;46.310;11.214;2024-03-02T02:07:12;8.20;99.90
9987;DHT22;5033;46.310;11.214;2024-03-02T02:09:40;8.20;99.90
9987;DHT22;5033;46.310;11.214;2024-03-02T02:12:08;8.20;99.90
9987;DHT22;5033;46.310;11.214;2024-03-02T02:14:35;8.20;99.90
9987;DHT22;5033;46.310;11.214;2024-03-02T02:17:02;8.20;99.90
9987;DHT22;5033;46.310;11.214;2024-03-02T02:19:29;8.20;99.90
9987;DHT22;5033;46.310;11.214;2024-03-02T02:21:57;8.20;99.90
9987;DHT22;5033;46.310;11.214;2024-03-02T02:24:24;8.20;99.90
9987;DHT22;5033;46.310;11.214;2024-03-02T02:26:51;8.20;99.90
9987;DHT22;5033;46.310;11.214;2024-03-02T02:29:18;8.20;99.90
9987;DHT22;5033;46.310;11.214;2024-03-02T02:31:45;8.20;99.90
9987;DHT22;5033;46.310;11.214;2024-03-02T02:34:12;8.20;99.90
9987;DHT22;5033;46.310;11.214;2024-03-02T02:36:40;8.10;99.90
9987;DHT22;5033;46.310;11.214;2024-03-02T02:39:12;8.20;99.90
9987;DHT22;5033;46.310;11.214;2024-03-02T02:41:40;8.20;99.90
9987;DHT22;5033;46.310;11.214;2024-03-02T02:44:07;8.20;99.90
9987;DHT22;5033;46.310;11.214;2024-03-02T02:46:34;8.20;99.90
9987;DHT22;5033;46.310;11.214;2024-03-02T02:49:01;8.20;99.90
9987;DHT22;5033;46.310;11.214;2024-03-02T02:51:28;8.20;99.90
9987;DHT22;5033;46.310;11.214;2024-03-02T02:53:54;8.20;99.90
9987;DHT22;5033;46.310;11.214;2024-03-02T02:56:23;8.20;99.90
9987;DHT22;5033;46.310;11.214;2024-03-02T02:58:50;8.20;99.90
9987;DHT22;5033;46.310;11.214;2024-03-02T03:01:17;8.20;99.90
9987;DHT22;5033;46.310;11.214;2024-03-02T03:03:43;8.20;99.90
9987;DHT22;5033;46.310;11.214;2024-03-02T03:06:11;8.20;99.90
9987;DHT22;5033;46.310;11.214;2024-03-02T03:08:38;8.20;99.90
9987;DHT22;5033;46.310;11.214;2024-03-02T03:11:05;8.20;99.90
9987;DHT22;5033;46.310;11.214;2024-03-02T03:13:34;8.20;99.90
9987;DHT22;5033;46.310;11.214;2024-03-02T03:16:01;8.10;99.90
9987;DHT22;5033;46.310;11.214;2024-03-02T03:18:28;8.10;99.90
9987;DHT22;5033;46.310;11.214;2024-03-02T03:20:55;8.10;99.90
9987;DHT22;5033;46.310;11.214;2024-03-02T03:23:22;8.10;99.90
9987;DHT22;5033;46.310;11.214;2024-03-02T03:25:49;8.10;99.90
9987;DHT22;5033;46.310;11.214;2024-03-02T03:28:16;8.10;99.90
9987;DHT22;5033;46.310;11.214;2024-03-02T03:30:45;8.10;99.90
9987;DHT22;5033;46.310;11.214;2024-03-02T03:33:12;8.10;99.90
9987;DHT22;5033;46.310;11.214;2024-03-02T03:35:39;8.10;99.90
9987;DHT22;5033;46.310;11.214;2024-03-02T03:38:06;8.10;99.90
9987;DHT22;5033;46.310;11.214;2024-03-02T03:40:33;8.10;99.90
9987;DHT22;5033;46.310;11.214;2024-03-02T03:43:00;8.10;99.90
9987;DHT22;5033;46.310;11.214;2024-03-02T03:45:27;8.10;99.90
9987;DHT22;5033;46.310;11.214;2024-03-02T03:47:55;8.00;99.90
9987;DHT22;5033;46.310;11.214;2024-03-02T03:50:22;8.00;99.90
9987;DHT22;5033;46.310;11.214;2024-03-02T03:52:49;8.00;99.90
9987;DHT22;5033;46.310;11.214;2024-03-02T03:55:16;8.00;99.90
9987;DHT22;5033;46.310;11.214;2024-03-02T03:57:43;8.00;99.90
9987;DHT22;5033;46.310;11.214;2024-03-02T04:00:10;8.00;99.90
9987;DHT22;5033;46.310;11.214;2024-03-02T04:02:38;8.00;99.90
9987;DHT22;5033;46.310;11.214;2024-03-02T04:05:07;8.00;99.90
9987;DHT22;5033;46.310;11.214;2024-03-02T04:07:36;8.00;99.90
9987;DHT22;5033;46.310;11.214;2024-03-02T04:10:09;8.00;99.90
9987;DHT22;5033;46.310;11.214;2024-03-02T04:12:37;8.00;99.90
9987;DHT22;5033;46.310;11.214;2024-03-02T04:15:05;7.90;99.90
9987;DHT22;5033;46.310;11.214;2024-03-02T04:17:33;7.90;99.90
9987;DHT22;5033;46.310;11.214;2024-03-02T04:20:01;7.90;99.90
9987;DHT22;5033;46.310;11.214;2024-03-02T04:22:33;7.90;99.90
9987;DHT22;5033;46.310;11.214;2024-03-02T04:25:01;7.90;99.90
9987;DHT22;5033;46.310;11.214;2024-03-02T04:27:30;7.90;99.90
9987;DHT22;5033;46.310;11.214;2024-03-02T04:29:58;7.90;99.90
9987;DHT22;5033;46.310;11.214;2024-03-02T04:32:25;7.90;99.90
9987;DHT22;5033;46.310;11.214;2024-03-02T04:34:52;7.90;99.90
9987;DHT22;5033;46.310;11.214;2024-03-02T04:37:19;7.90;99.90
9987;DHT22;5033;46.310;11.214;2024-03-02T04:39:48;7.90;99.90
9987;DHT22;5033;46.310;11.214;2024-03-02T04:42:15;8.00;99.90
9987;DHT22;5033;46.310;11.214;2024-03-02T04:44:42;7.90;99.90
9987;DHT22;5033;46.310;11.214;2024-03-02T04:47:09;8.00;99.90
9987;DHT22;5033;46.310;11.214;2024-03-02T04:49:36;8.00;99.90
9987;DHT22;5033;46.310;11.214;2024-03-02T04:52:03;7.90;99.90
9987;DHT22;5033;46.310;11.214;2024-03-02T04:54:30;7.90;99.90
9987;DHT22;5033;46.310;11.214;2024-03-02T04:56:58;7.90;99.90
9987;DHT22;5033;46.310;11.214;2024-03-02T04:59:25;8.00;99.90
9987;DHT22;5033;46.310;11.214;2024-03-02T05:01:52;8.00;99.90
9987;DHT22;5033;46.310;11.214;2024-03-02T05:04:19;8.00;99.90
9987;DHT22;5033;46.310;11.214;2024-03-02T05:06:46;8.00;99.90
9987;DHT22;5033;46.310;11.214;2024-03-02T05:09:18;8.00;99.90
9987;DHT22;5033;46.310;11.214;2024-03-02T05:11:45;8.00;99.90
9987;DHT22;5033;46.310;11.214;2024-03-02T05:14:42;8.00;99.90
9987;DHT22;5033;46.310;11.214;2024-03-02T05:17:09;8.00;99.90
9987;DHT22;5033;46.310;11.214;2024-03-02T05:19:36;8.00;99.90
9987;DHT22;5033;46.310;11.214;2024-03-02T05:22:04;8.00;99.90
9987;DHT22;5033;46.310;11.214;2024-03-02T05:24:31;8.00;99.90
9987;DHT22;5033;46.310;11.214;2024-03-02T05:26:58;7.90;99.90
9987;DHT22;5033;46.310;11.214;2024-03-02T05:29:25;7.90;99.90
9987;DHT22;5033;46.310;11.214;2024-03-02T05:31:53;7.90;99.90
9987;DHT22;5033;46.310;11.214;2024-03-02T05:34:20;7.90;99.90
9987;DHT22;5033;46.310;11.214;2024-03-02T05:36:47;7.90;99.90
9987;DHT22;5033;46.310;11.214;2024-03-02T05:39:14;7.90;99.90
9987;DHT22;5033;46.310;11.214;2024-03-02T05:41:41;7.90;99.90
9987;DHT22;5033;46.310;11.214;2024-03-02T05:44:08;7.90;99.90
9987;DHT22;5033;46.310;11.214;2024-03-02T05:46:35;7.90;99.90
9987;DHT22;5033;46.310;11.214;2024-03-02T05:49:03;7.80;99.90
9987;DHT22;5033;46.310;11.214;2024-03-02T05:51:30;7.80;99.90
9987;DHT22;5033;46.310;11.214;2024-03-02T05:53:57;7.80;99.90
9987;DHT22;5033;46.310;11.214;2024-03-02T05:56:24;7.80;99.90
9987;DHT22;5033;46.310;11.214;2024-03-02T05:58:51;7.80;99.90
9987;DHT22;5033;46.310;11.214;2024-03-02T06:01:33;7.80;99.90
9987;DHT22;5033;46.310;11.214;2024-03-02T06:04:00;7.80;99.90
9987;DHT22;5033;46.310;11.214;2024-03-02T06:06:28;7.80;99.90
9987;DHT22;5033;46.310;11.214;2024-03-02T06:08:56;7.80;99.90
9987;DHT22;5033;46.310;11.214;2024-03-02T06:11:23;7.80;99.90
9987;DHT22;5033;46.310;11.214;2024-03-02T06:13:50;7.90;99.90
9987;DHT22;5033;46.310;11.214;2024-03-02T06:16:17;7.90;99.90
9987;DHT22;5033;46.310;11.214;2024-03-02T06:18:44;8.00;99.90
9987;DHT22;5033;46.310;11.214;2024-03-02T06:21:11;8.00;99.90
9987;DHT22;5033;46.310;11.214;2024-03-02T06:23:39;8.10;99.90
9987;DHT22;5033;46.310;11.214;2024-03-02T06:26:06;8.10;99.90
9987;DHT22;5033;46.310;11.214;2024-03-02T06:28:33;8.20;99.90
9987;DHT22;5033;46.310;11.214;2024-03-02T06:31:01;8.20;99.90
9987;DHT22;5033;46.310;11.214;2024-03-02T06:33:28;8.30;99.90
9987;DHT22;5033;46.310;11.214;2024-03-02T06:35:55;8.30;99.90
9987;DHT22;5033;46.310;11.214;2024-03-02T06:38:22;8.40;99.90
9987;DHT22;5033;46.310;11.214;2024-03-02T06:40:50;8.50;99.90
9987;DHT22;5033;46.310;11.214;2024-03-02T06:43:17;8.60;99.90
9987;DHT22;5033;46.310;11.214;2024-03-02T06:45:48;8.70;99.90
9987;DHT22;5033;46.310;11.214;2024-03-02T06:48:15;8.80;99.90
9987;DHT22;5033;46.310;11.214;2024-03-02T06:50:45;8.90;99.90
9987;DHT22;5033;46.310;11.214;2024-03-02T06:53:13;9.00;99.90
9987;DHT22;5033;46.310;11.214;2024-03-02T06:55:43;9.10;99.90
9987;DHT22;5033;46.310;11.214;2024-03-02T06:58:12;9.20;99.90
9987;DHT22;5033;46.310;11.214;2024-03-02T07:00:40;9.30;99.90
9987;DHT22;5033;46.310;11.214;2024-03-02T07:03:07;9.30;99.90
9987;DHT22;5033;46.310;11.214;2024-03-02T07:05:34;9.40;99.90
9987;DHT22;5033;46.310;11.214;2024-03-02T07:08:01;9.50;99.90
9987;DHT22;5033;46.310;11.214;2024-03-02T07:10:30;9.50;99.90
9987;DHT22;5033;46.310;11.214;2024-03-02T07:12:57;9.60;99.90
9987;DHT22;5033;46.310;11.214;2024-03-02T07:15:25;9.70;99.90
9987;DHT22;5033;46.310;11.214;2024-03-02T07:18:10;9.80;99.90
9987;DHT22;5033;46.310;11.214;2024-03-02T07:20:37;9.90;99.90
9987;DHT22;5033;46.310;11.214;2024-03-02T07:23:05;9.90;99.90
9987;DHT22;5033;46.310;11.214;2024-03-02T07:25:32;9.90;99.90
9987;DHT22;5033;46.310;11.214;2024-03-02T07:27:59;9.90;99.90
9987;DHT22;5033;46.310;11.214;2024-03-02T07:30:28;9.80;99.90
9987;DHT22;5033;46.310;11.214;2024-03-02T07:32:54;9.80;99.90
9987;DHT22;5033;46.310;11.214;2024-03-02T07:35:21;9.80;99.90
9987;DHT22;5033;46.310;11.214;2024-03-02T07:37:52;9.80;99.90
9987;DHT22;5033;46.310;11.214;2024-03-02T07:40:19;9.80;99.90
9987;DHT22;5033;46.310;11.214;2024-03-02T07:42:46;9.80;99.90
9987;DHT22;5033;46.310;11.214;2024-03-02T07:45:13;9.80;99.90
9987;DHT22;5033;46.310;11.214;2024-03-02T07:47:42;9.80;99.90
9987;DHT22;5033;46.310;11.214;2024-03-02T07:50:09;9.70;99.90
9987;DHT22;5033;46.310;11.214;2024-03-02T07:52:36;9.80;99.90
9987;DHT22;5033;46.310;11.214;2024-03-02T07:55:03;9.80;99.90
9987;DHT22;5033;46.310;11.214;2024-03-02T07:57:31;9.70;99.90
9987;DHT22;5033;46.310;11.214;2024-03-02T07:59:58;9.70;99.90
9987;DHT22;5033;46.310;11.214;2024-03-02T08:02:26;9.70;99.90
9987;DHT22;5033;46.310;11.214;2024-03-02T08:04:54;9.70;99.90
9987;DHT22;5033;46.310;11.214;2024-03-02T08:07:21;9.70;99.90
9987;DHT22;5033;46.310;11.214;2024-03-02T08:09:48;9.80;99.90
9987;DHT22;5033;46.310;11.214;2024-03-02T08:12:15;9.80;99.90
9987;DHT22;5033;46.310;11.214;2024-03-02T08:14:42;9.90;99.90
9987;DHT22;5033;46.310;11.214;2024-03-02T08:17:09;9.90;99.90
9987;DHT22;5033;46.310;11.214;2024-03-02T08:19:37;9.80;99.90
9987;DHT22;5033;46.310;11.214;2024-03-02T08:22:05;9.80;99.90
9987;DHT22;5033;46.310;11.214;2024-03-02T08:24:33;9.80;99.90
9987;DHT22;5033;46.310;11.214;2024-03-02T08:27:00;9.80;99.90
9987;DHT22;5033;46.310;11.214;2024-03-02T08:29:27;10.00;99.90
9987;DHT22;5033;46.310;11.214;2024-03-02T08:31:54;10.10;99.90
9987;DHT22;5033;46.310;11.214;2024-03-02T08:34:21;10.10;99.90
9987;DHT22;5033;46.310;11.214;2024-03-02T08:36:48;10.20;99.90
9987;DHT22;5033;46.310;11.214;2024-03-02T08:39:16;10.10;99.90
9987;DHT22;5033;46.310;11.214;2024-03-02T08:41:45;10.20;99.90
9987;DHT22;5033;46.310;11.214;2024-03-02T08:44:13;10.20;99.90
9987;DHT22;5033;46.310;11.214;2024-03-02T08:46:40;10.10;99.90
9987;DHT22;5033;46.310;11.214;2024-03-02T08:49:07;10.10;99.90
9987;DHT22;5033;46.310;11.214;2024-03-02T08:51:34;10.10;99.90
9987;DHT22;5033;46.310;11.214;2024-03-02T08:54:01;10.10;99.90
9987;DHT22;5033;46.310;11.214;2024-03-02T08:56:31;10.20;99.90
9987;DHT22;5033;46.310;11.214;2024-03-02T08:58:58;10.30;99.90
9987;DHT22;5033;46.310;11.214;2024-03-02T09:01:25;10.30;99.90
9987;DHT22;5033;46.310;11.214;2024-03-02T09:03:52;10.40;99.90
9987;DHT22;5033;46.310;11.214;2024-03-02T09:06:19;10.60;99.90
9987;DHT22;5033;46.310;11.214;2024-03-02T09:08:47;10.80;99.90
9987;DHT22;5033;46.310;11.214;2024-03-02T09:11:15;11.00;99.90
9987;DHT22;5033;46.310;11.214;2024-03-02T09:13:43;11.20;99.90
9987;DHT22;5033;46.310;11.214;2024-03-02T09:16:10;11.40;99.90
9987;DHT22;5033;46.310;11.214;2024-03-02T09:18:37;11.60;99.90
9987;DHT22;5033;46.310;11.214;2024-03-02T09:21:04;11.70;99.90
9987;DHT22;5033;46.310;11.214;2024-03-02T09:23:33;11.90;99.90
9987;DHT22;5033;46.310;11.214;2024-03-02T09:26:00;12.00;99.90
9987;DHT22;5033;46.310;11.214;2024-03-02T09:28:27;12.50;99.90
9987;DHT22;5033;46.310;11.214;2024-03-02T09:30:55;12.80;99.90
9987;DHT22;5033;46.310;11.214;2024-03-02T09:33:22;13.00;99.90
9987;DHT22;5033;46.310;11.214;2024-03-02T09:35:49;13.00;99.90
9987;DHT22;5033;46.310;11.214;2024-03-02T09:38:16;12.90;99.90
9987;DHT22;5033;46.310;11.214;2024-03-02T09:40:43;13.30;99.90
9987;DHT22;5033;46.310;11.214;2024-03-02T09:43:10;13.40;99.90
9987;DHT22;5033;46.310;11.214;2024-03-02T09:45:37;13.30;99.90
9987;DHT22;5033;46.310;11.214;2024-03-02T09:48:07;13.30;99.90
9987;DHT22;5033;46.310;11.214;2024-03-02T09:50:34;13.40;99.90
9987;DHT22;5033;46.310;11.214;2024-03-02T09:53:01;13.90;99.90
9987;DHT22;5033;46.310;11.214;2024-03-02T09:55:28;14.00;99.90
9987;DHT22;5033;46.310;11.214;2024-03-02T09:57:55;14.10;99.90
9987;DHT22;5033;46.310;11.214;2024-03-02T10:00:22;14.10;99.90
9987;DHT22;5033;46.310;11.214;2024-03-02T10:02:50;14.10;99.90
9987;DHT22;5033;46.310;11.214;2024-03-02T10:05:26;14.10;99.90
9987;DHT22;5033;46.310;11.214;2024-03-02T10:08:00;13.90;99.90
9987;DHT22;5033;46.310;11.214;2024-03-02T10:10:38;13.80;99.90
9987;DHT22;5033;46.310;11.214;2024-03-02T10:13:08;13.70;99.90
9987;DHT22;5033;46.310;11.214;2024-03-02T10:15:36;13.40;99.90
9987;DHT22;5033;46.310;11.214;2024-03-02T10:18:03;13.40;99.90
9987;DHT22;5033;46.310;11.214;2024-03-02T10:20:32;13.30;99.90
9987;DHT22;5033;46.310;11.214;2024-03-02T10:23:14;13.40;99.90
9987;DHT22;5033;46.310;11.214;2024-03-02T10:25:42;13.40;99.90
9987;DHT22;5033;46.310;11.214;2024-03-02T10:28:10;13.30;99.90
9987;DHT22;5033;46.310;11.214;2024-03-02T10:30:37;13.20;99.90
9987;DHT22;5033;46.310;11.214;2024-03-02T10:33:06;13.10;99.90
9987;DHT22;5033;46.310;11.214;2024-03-02T10:35:34;13.00;99.90
9987;DHT22;5033;46.310;11.214;2024-03-02T10:38:04;12.80;99.90
9987;DHT22;5033;46.310;11.214;2024-03-02T10:40:31;12.80;99.90
9987;DHT22;5033;46.310;11.214;2024-03-02T10:42:59;12.80;99.90
9987;DHT22;5033;46.310;11.214;2024-03-02T10:45:27;12.80;99.90
9987;DHT22;5033;46.310;11.214;2024-03-02T10:47:55;12.90;99.90
9987;DHT22;5033;46.310;11.214;2024-03-02T10:50:22;13.00;99.90
9987;DHT22;5033;46.310;11.214;2024-03-02T10:52:51;13.00;99.90
9987;DHT22;5033;46.310;11.214;2024-03-02T10:55:18;12.90;99.90
9987;DHT22;5033;46.310;11.214;2024-03-02T10:57:50;12.90;99.90
9987;DHT22;5033;46.310;11.214;2024-03-02T11:00:20;12.90;99.90
9987;DHT22;5033;46.310;11.214;2024-03-02T11:02:52;12.90;99.90
9987;DHT22;5033;46.310;11.214;2024-03-02T11:05:26;13.00;99.90
9987;DHT22;5033;46.310;11.214;2024-03-02T11:07:58;13.10;99.90
9987;DHT22;5033;46.310;11.214;2024-03-02T11:10:27;13.40;99.90
9987;DHT22;5033;46.310;11.214;2024-03-02T11:13:00;13.40;99.90
9987;DHT22;5033;46.310;11.214;2024-03-02T11:15:28;13.50;99.90
9987;DHT22;5033;46.310;11.214;2024-03-02T11:17:57;13.40;99.90
9987;DHT22;5033;46.310;11.214;2024-03-02T11:20:24;13.60;99.90
9987;DHT22;5033;46.310;11.214;2024-03-02T11:22:52;13.80;99.90
9987;DHT22;5033;46.310;11.214;2024-03-02T11:25:27;13.80;99.90
9987;DHT22;5033;46.310;11.214;2024-03-02T11:28:00;14.00;99.90
9987;DHT22;5033;46.310;11.214;2024-03-02T11:30:50;13.70;99.90
9987;DHT22;5033;46.310;11.214;2024-03-02T11:33:24;13.60;99.90
9987;DHT22;5033;46.310;11.214;2024-03-02T11:35:53;13.50;99.90
9987;DHT22;5033;46.310;11.214;2024-03-02T11:38:20;13.10;99.90
9987;DHT22;5033;46.310;11.214;2024-03-02T11:40:49;12.90;99.90
9987;DHT22;5033;46.310;11.214;2024-03-02T11:43:16;12.80;99.90
9987;DHT22;5033;46.310;11.214;2024-03-02T11:45:43;12.70;99.90
9987;DHT22;5033;46.310;11.214;2024-03-02T11:48:11;12.60;99.90
9987;DHT22;5033;46.310;11.214;2024-03-02T11:50:41;12.60;99.90
9987;DHT22;5033;46.310;11.214;2024-03-02T11:53:10;12.70;99.90
9987;DHT22;5033;46.310;11.214;2024-03-02T11:55:39;12.80;99.90
9987;DHT22;5033;46.310;11.214;2024-03-02T11:58:08;12.80;99.90
9987;DHT22;5033;46.310;11.214;2024-03-02T12:00:35;12.80;99.90
9987;DHT22;5033;46.310;11.214;2024-03-02T12:03:04;12.70;99.90
9987;DHT22;5033;46.310;11.214;2024-03-02T12:05:33;12.70;99.90
9987;DHT22;5033;46.310;11.214;2024-03-02T12:08:01;12.80;99.90
9987;DHT22;5033;46.310;11.214;2024-03-02T12:10:30;12.90;99.90
9987;DHT22;5033;46.310;11.214;2024-03-02T12:12:57;12.90;99.90
9987;DHT22;5033;46.310;11.214;2024-03-02T12:15:28;13.00;99.90
9987;DHT22;5033;46.310;11.214;2024-03-02T12:17:56;13.10;99.90
9987;DHT22;5033;46.310;11.214;2024-03-02T12:20:24;13.20;99.90
9987;DHT22;5033;46.310;11.214;2024-03-02T12:22:51;13.30;99.90
9987;DHT22;5033;46.310;11.214;2024-03-02T12:25:19;13.50;99.90
9987;DHT22;5033;46.310;11.214;2024-03-02T12:27:48;13.50;99.90
9987;DHT22;5033;46.310;11.214;2024-03-02T12:30:16;13.60;99.90
9987;DHT22;5033;46.310;11.214;2024-03-02T12:32:45;13.70;99.90
9987;DHT22;5033;46.310;11.214;2024-03-02T12:35:13;13.70;99.90
9987;DHT22;5033;46.310;11.214;2024-03-02T12:37:44;13.60;99.90
9987;DHT22;5033;46.310;11.214;2024-03-02T12:40:12;13.60;99.90
9987;DHT22;5033;46.310;11.214;2024-03-02T12:42:40;13.60;99.90
9987;DHT22;5033;46.310;11.214;2024-03-02T12:45:08;13.50;99.90
9987;DHT22;5033;46.310;11.214;2024-03-02T12:47:35;13.50;99.90
9987;DHT22;5033;46.310;11.214;2024-03-02T12:50:04;13.30;99.90
9987;DHT22;5033;46.310;11.214;2024-03-02T12:52:32;13.30;99.90
9987;DHT22;5033;46.310;11.214;2024-03-02T12:55:00;13.30;99.90
9987;DHT22;5033;46.310;11.214;2024-03-02T12:57:29;13.10;99.90
9987;DHT22;5033;46.310;11.214;2024-03-02T13:00:00;13.00;99.90
9987;DHT22;5033;46.310;11.214;2024-03-02T13:02:31;12.80;99.90
9987;DHT22;5033;46.310;11.214;2024-03-02T13:04:58;12.70;99.90
9987;DHT22;5033;46.310;11.214;2024-03-02T13:07:27;12.70;99.90
9987;DHT22;5033;46.310;11.214;2024-03-02T13:09:54;12.70;99.90
9987;DHT22;5033;46.310;11.214;2024-03-02T13:12:22;12.60;99.90
9987;DHT22;5033;46.310;11.214;2024-03-02T13:14:51;12.50;99.90
9987;DHT22;5033;46.310;11.214;2024-03-02T13:17:18;12.40;99.90
9987;DHT22;5033;46.310;11.214;2024-03-02T13:19:52;12.40;99.90
9987;DHT22;5033;46.310;11.214;2024-03-02T13:22:19;12.30;99.90
9987;DHT22;5033;46.310;11.214;2024-03-02T13:24:48;12.30;99.90
9987;DHT22;5033;46.310;11.214;2024-03-02T13:27:15;12.30;99.90
9987;DHT22;5033;46.310;11.214;2024-03-02T13:29:45;12.30;99.90
9987;DHT22;5033;46.310;11.214;2024-03-02T13:32:12;12.30;99.90
9987;DHT22;5033;46.310;11.214;2024-03-02T13:34:39;12.30;99.90
9987;DHT22;5033;46.310;11.214;2024-03-02T13:37:06;12.30;99.90
9987;DHT22;5033;46.310;11.214;2024-03-02T13:39:32;12.30;99.90
9987;DHT22;5033;46.310;11.214;2024-03-02T13:42:07;12.30;99.90
9987;DHT22;5033;46.310;11.214;2024-03-02T13:44:35;12.30;99.90
9987;DHT22;5033;46.310;11.214;2024-03-02T13:47:03;12.30;99.90
9987;DHT22;5033;46.310;11.214;2024-03-02T13:49:30;12.30;99.90
9987;DHT22;5033;46.310;11.214;2024-03-02T13:52:02;12.30;99.90
9987;DHT22;5033;46.310;11.214;2024-03-02T13:54:37;12.20;99.90
9987;DHT22;5033;46.310;11.214;2024-03-02T13:57:07;12.20;99.90
9987;DHT22;5033;46.310;11.214;2024-03-02T13:59:34;12.10;99.90
9987;DHT22;5033;46.310;11.214;2024-03-02T14:02:01;12.00;99.90
9987;DHT22;5033;46.310;11.214;2024-03-02T14:04:30;12.00;99.90
9987;DHT22;5033;46.310;11.214;2024-03-02T14:06:57;12.00;99.90
9987;DHT22;5033;46.310;11.214;2024-03-02T14:09:24;12.00;99.90
9987;DHT22;5033;46.310;11.214;2024-03-02T14:11:51;12.00;99.90
9987;DHT22;5033;46.310;11.214;2024-03-02T14:14:19;12.10;99.90
9987;DHT22;5033;46.310;11.214;2024-03-02T14:16:46;12.10;99.90
9987;DHT22;5033;46.310;11.214;2024-03-02T14:19:13;12.10;99.90
9987;DHT22;5033;46.310;11.214;2024-03-02T14:21:41;12.10;99.90
9987;DHT22;5033;46.310;11.214;2024-03-02T14:24:08;12.10;99.90
9987;DHT22;5033;46.310;11.214;2024-03-02T14:26:35;12.10;99.90
9987;DHT22;5033;46.310;11.214;2024-03-02T14:29:02;12.10;99.90
9987;DHT22;5033;46.310;11.214;2024-03-02T14:31:31;12.10;99.90
9987;DHT22;5033;46.310;11.214;2024-03-02T14:33:58;12.10;99.90
9987;DHT22;5033;46.310;11.214;2024-03-02T14:36:25;12.00;99.90
9987;DHT22;5033;46.310;11.214;2024-03-02T14:38:53;12.00;99.90
9987;DHT22;5033;46.310;11.214;2024-03-02T14:41:20;12.00;99.90
9987;DHT22;5033;46.310;11.214;2024-03-02T14:43:47;12.00;99.90
9987;DHT22;5033;46.310;11.214;2024-03-02T14:46:15;12.00;99.90
9987;DHT22;5033;46.310;11.214;2024-03-02T14:48:45;12.00;99.90
9987;DHT22;5033;46.310;11.214;2024-03-02T14:51:13;12.00;99.90
9987;DHT22;5033;46.310;11.214;2024-03-02T14:53:40;11.90;99.90
9987;DHT22;5033;46.310;11.214;2024-03-02T14:56:07;12.00;99.90
9987;DHT22;5033;46.310;11.214;2024-03-02T14:58:34;11.90;99.90
9987;DHT22;5033;46.310;11.214;2024-03-02T15:01:03;11.90;99.90
9987;DHT22;5033;46.310;11.214;2024-03-02T15:03:30;11.80;99.90
9987;DHT22;5033;46.310;11.214;2024-03-02T15:05:59;11.80;99.90
9987;DHT22;5033;46.310;11.214;2024-03-02T15:08:26;11.70;99.90
9987;DHT22;5033;46.310;11.214;2024-03-02T15:10:53;11.70;99.90
9987;DHT22;5033;46.310;11.214;2024-03-02T15:13:21;11.70;99.90
9987;DHT22;5033;46.310;11.214;2024-03-02T15:15:48;11.60;99.90
9987;DHT22;5033;46.310;11.214;2024-03-02T15:18:15;11.60;99.90
9987;DHT22;5033;46.310;11.214;2024-03-02T15:20:42;11.60;99.90
9987;DHT22;5033;46.310;11.214;2024-03-02T15:23:10;11.50;99.90
9987;DHT22;5033;46.310;11.214;2024-03-02T15:25:37;11.50;99.90
9987;DHT22;5033;46.310;11.214;2024-03-02T15:28:05;11.50;99.90
9987;DHT22;5033;46.310;11.214;2024-03-02T15:30:32;11.40;99.90
9987;DHT22;5033;46.310;11.214;2024-03-02T15:32:59;11.40;99.90
9987;DHT22;5033;46.310;11.214;2024-03-02T15:35:26;11.30;99.90
9987;DHT22;5033;46.310;11.214;2024-03-02T15:37:53;11.30;99.90
9987;DHT22;5033;46.310;11.214;2024-03-02T15:40:21;11.20;99.90
9987;DHT22;5033;46.310;11.214;2024-03-02T15:42:48;11.20;99.90
9987;DHT22;5033;46.310;11.214;2024-03-02T15:45:15;11.10;99.90
9987;DHT22;5033;46.310;11.214;2024-03-02T15:47:42;11.10;99.90
9987;DHT22;5033;46.310;11.214;2024-03-02T15:50:09;11.10;99.90
9987;DHT22;5033;46.310;11.214;2024-03-02T15:52:37;11.00;99.90
9987;DHT22;5033;46.310;11.214;2024-03-02T15:55:04;11.00;99.90
9987;DHT22;5033;46.310;11.214;2024-03-02T15:57:33;11.00;99.90
9987;DHT22;5033;46.310;11.214;2024-03-02T16:00:00;11.10;99.90